createdAt,value
2019-02-26T00:04:45.120Z,102452.77
2019-02-26T00:09:51.380Z,102431.16
2019-02-26T00:14:59.532Z,102459.23
2019-02-26T00:20:07.872Z,102450.59
2019-02-26T00:25:16.160Z,102455.19
2019-02-26T00:30:22.178Z,102455.94
2019-02-26T00:35:27.789Z,102460.10
2019-02-26T00:40:34.949Z,102442.85
2019-02-26T00:45:40.095Z,102444.78
2019-02-26T00:50:45.835Z,102429.36
2019-02-26T00:55:54.200Z,102420.94
2019-02-26T01:00:58.667Z,102427.92
2019-02-26T01:06:05.927Z,102414.94
2019-02-26T01:11:12.190Z,102403.77
2019-02-26T01:16:17.519Z,102390.84
2019-02-26T01:21:26.266Z,102387.56
2019-02-26T01:26:29.906Z,102399.61
2019-02-26T01:31:35.372Z,102396.61
2019-02-26T01:36:42.626Z,102403.63
2019-02-26T01:41:50.369Z,102400.95
2019-02-26T01:46:56.250Z,102392.81
2019-02-26T01:52:02.333Z,102411.80
2019-02-26T01:57:09.281Z,102427.03
2019-02-26T02:02:17.471Z,102424.59
2019-02-26T02:07:23.719Z,102415.62
2019-02-26T02:12:31.547Z,102432.91
2019-02-26T02:17:38.375Z,102433.07
2019-02-26T02:22:44.403Z,102430.00
2019-02-26T02:27:54.146Z,102428.77
2019-02-26T02:32:59.443Z,102414.31
2019-02-26T02:38:04.916Z,102431.92
2019-02-26T02:43:13.228Z,102434.98
2019-02-26T02:48:17.341Z,102423.44
2019-02-26T02:53:23.936Z,102413.09
2019-02-26T02:58:29.320Z,102402.41
2019-02-26T03:03:34.451Z,102394.38
2019-02-26T03:08:42.107Z,102404.62
2019-02-26T03:13:48.343Z,102433.98
2019-02-26T03:18:53.604Z,102425.43
2019-02-26T03:24:01.048Z,102422.36
2019-02-26T03:29:06.164Z,102427.80
2019-02-26T03:34:18.930Z,102421.38
2019-02-26T03:39:18.092Z,102425.53
2019-02-26T03:44:23.471Z,102428.19
2019-02-26T03:49:28.928Z,102428.88
2019-02-26T03:54:37.210Z,102438.77
2019-02-26T03:59:41.569Z,102435.44
2019-02-26T04:04:51.718Z,102425.91
2019-02-26T04:09:55.765Z,102419.27
2019-02-26T04:15:00.947Z,102423.09
2019-02-26T04:20:08.891Z,102424.15
2019-02-26T04:25:36.521Z,102413.83
2019-02-26T04:31:02.626Z,102436.84
2019-02-26T04:36:15.028Z,102442.36
2019-02-26T04:41:20.628Z,102437.09
2019-02-26T04:46:34.341Z,102443.30
2019-02-26T04:51:41.951Z,102430.66
2019-02-26T04:56:47.936Z,102437.41
2019-02-26T05:01:55.124Z,102443.94
2019-02-26T05:07:04.368Z,102437.13
2019-02-26T05:12:08.599Z,102438.34
2019-02-26T05:17:13.973Z,102435.45
2019-02-26T05:22:21.953Z,102434.82
2019-02-26T05:27:26.527Z,102432.23
2019-02-26T05:32:33.419Z,102432.47
2019-02-26T05:37:40.953Z,102430.27
2019-02-26T05:42:46.332Z,102416.27
2019-02-26T05:47:56.068Z,102423.36
2019-02-26T05:53:01.816Z,102417.14
2019-02-26T05:58:07.414Z,102417.36
2019-02-26T06:03:16.352Z,102436.05
2019-02-26T06:08:25.617Z,102428.86
2019-02-26T06:13:29.141Z,102431.31
2019-02-26T06:18:35.336Z,102427.39
2019-02-26T06:23:43.111Z,102418.22
2019-02-26T06:28:52.984Z,102406.91
2019-02-26T06:34:01.476Z,102402.02
2019-02-26T06:39:06.225Z,102419.84
2019-02-26T06:44:11.584Z,102428.57
2019-02-26T06:49:20.091Z,102445.10
2019-02-26T06:54:24.955Z,102459.00
2019-02-26T06:59:55.714Z,102451.95
2019-02-26T07:05:00.614Z,102460.14
2019-02-26T07:10:13.807Z,102468.86
2019-02-26T07:15:17.356Z,102468.33
2019-02-26T07:20:22.768Z,102470.03
2019-02-26T07:25:28.034Z,102480.14
2019-02-26T07:30:35.309Z,102485.09
2019-02-26T07:35:40.699Z,102479.16
2019-02-26T07:40:46.059Z,102485.89
2019-02-26T07:45:51.475Z,102494.17
2019-02-26T07:50:56.878Z,102503.86
2019-02-26T07:56:04.510Z,102506.28
2019-02-26T08:01:09.415Z,102527.15
2019-02-26T08:06:14.703Z,102517.58
2019-02-26T08:11:20.117Z,102528.92
2019-02-26T08:16:27.520Z,102528.70
2019-02-26T08:21:32.428Z,102531.37
2019-02-26T08:26:38.637Z,102536.34
2019-02-26T08:31:46.612Z,102536.34
2019-02-26T08:36:52.501Z,102542.46
2019-02-26T08:42:08.804Z,102529.45
2019-02-26T08:47:16.238Z,102530.15
2019-02-26T08:52:22.731Z,102553.05
2019-02-26T08:57:27.936Z,102558.82
2019-02-26T09:02:33.159Z,102556.22
2019-02-26T09:07:40.471Z,102562.49
2019-02-26T09:12:46.748Z,102559.72
2019-02-26T09:17:53.175Z,102567.14
2019-02-26T09:23:01.087Z,102576.81
2019-02-26T09:28:05.637Z,102571.09
2019-02-26T09:33:11.191Z,102578.42
2019-02-26T09:38:17.674Z,102586.63
2019-02-26T09:43:24.466Z,102593.81
2019-02-26T09:48:30.034Z,102602.13
2019-02-26T09:53:35.328Z,102608.64
2019-02-26T09:58:42.876Z,102611.41
2019-02-26T10:03:47.429Z,102621.47
2019-02-26T10:08:53.302Z,102621.39
2019-02-26T10:13:59.527Z,102631.13
2019-02-26T10:19:04.947Z,102639.78
2019-02-26T10:24:10.216Z,102650.78
2019-02-26T10:29:15.362Z,102633.27
2019-02-26T10:34:25.490Z,102644.91
2019-02-26T10:39:28.386Z,102640.61
2019-02-26T10:44:34.004Z,102646.02
2019-02-26T10:49:39.358Z,102663.85
2019-02-26T10:54:46.567Z,102672.17
2019-02-26T10:59:51.614Z,102662.16
2019-02-26T11:04:57.991Z,102652.82
2019-02-26T11:10:03.237Z,102667.61
2019-02-26T11:15:13.134Z,102663.77
2019-02-26T11:20:21.840Z,102658.68
2019-02-26T11:25:27.562Z,102666.22
2019-02-26T11:30:33.077Z,102671.98
2019-02-26T11:35:39.727Z,102663.18
2019-02-26T11:40:45.323Z,102661.64
2019-02-26T11:45:50.991Z,102649.77
2019-02-26T11:50:56.363Z,102649.65
2019-02-26T11:56:02.131Z,102649.61
2019-02-26T12:01:08.711Z,102648.81
2019-02-26T12:06:13.971Z,102639.82
2019-02-26T12:11:20.332Z,102633.86
2019-02-26T12:16:28.466Z,102641.55
2019-02-26T12:21:34.578Z,102636.90
2019-02-26T12:26:42.304Z,102650.91
2019-02-26T12:31:47.519Z,102649.53
2019-02-26T12:36:56.345Z,102657.66
2019-02-26T12:41:59.801Z,102656.08
2019-02-26T12:47:06.268Z,102653.91
2019-02-26T12:52:11.720Z,102665.62
2019-02-26T12:57:19.097Z,102661.86
2019-02-26T13:02:25.668Z,102661.05
2019-02-26T13:07:30.774Z,102655.59
2019-02-26T13:12:36.230Z,102665.66
2019-02-26T13:17:44.317Z,102667.80
2019-02-26T13:22:48.859Z,102666.89
2019-02-26T13:27:53.926Z,102655.56
2019-02-26T13:33:00.856Z,102659.91
2019-02-26T13:38:06.782Z,102668.75
2019-02-26T13:43:12.485Z,102671.98
2019-02-26T13:48:18.849Z,102669.80
2019-02-26T13:53:24.327Z,102669.06
2019-02-26T13:58:29.696Z,102656.98
2019-02-26T14:03:35.235Z,102662.47
2019-02-26T14:08:40.985Z,102664.95
2019-02-26T14:13:46.288Z,102668.52
2019-02-26T14:18:51.446Z,102659.75
2019-02-26T14:23:56.779Z,102659.03
2019-02-26T14:29:02.150Z,102654.16
2019-02-26T14:34:07.394Z,102661.72
2019-02-26T14:39:12.900Z,102653.58
2019-02-26T14:44:18.211Z,102660.31
2019-02-26T14:49:23.667Z,102665.36
2019-02-26T14:54:29.152Z,102662.74
2019-02-26T14:59:34.495Z,102663.89
2019-02-26T15:04:40.002Z,102678.09
2019-02-26T15:09:45.328Z,102678.47
2019-02-26T15:14:50.735Z,102684.27
2019-02-26T15:19:56.113Z,102683.38
2019-02-26T15:25:01.325Z,102686.58
2019-02-26T15:30:09.868Z,102692.23
2019-02-26T15:35:16.102Z,102694.89
2019-02-26T15:40:22.440Z,102709.37
2019-02-26T15:45:30.222Z,102709.37
2019-02-26T15:50:37.688Z,102710.11
2019-02-26T15:55:42.706Z,102717.92
2019-02-26T16:00:48.120Z,102738.05
2019-02-26T16:05:54.605Z,102738.05
2019-02-26T16:10:59.846Z,102740.48
2019-02-26T16:16:05.471Z,102752.37
2019-02-26T16:21:10.888Z,102767.52
2019-02-26T16:26:16.159Z,102755.22
2019-02-26T16:31:21.596Z,102753.59
2019-02-26T16:36:28.758Z,102758.57
2019-02-26T16:41:35.635Z,102767.92
2019-02-26T16:46:42.092Z,102761.78
2019-02-26T16:51:48.055Z,102767.95
2019-02-26T16:56:54.642Z,102782.85
2019-02-26T17:02:01.839Z,102781.70
2019-02-26T17:07:07.513Z,102777.67
2019-02-26T17:12:12.978Z,102778.15
2019-02-26T17:17:18.707Z,102777.19
2019-02-26T17:22:24.209Z,102790.25
2019-02-26T17:27:30.291Z,102791.73
2019-02-26T17:32:38.087Z,102794.17
2019-02-26T17:37:43.064Z,102785.86
2019-02-26T17:42:48.893Z,102782.30
2019-02-26T17:47:56.799Z,102784.45
2019-02-26T17:53:02.953Z,102781.09
2019-02-26T17:58:10.549Z,102787.22
2019-02-26T18:03:15.163Z,102780.02
2019-02-26T18:08:20.826Z,102771.16
2019-02-26T18:13:26.271Z,102769.31
2019-02-26T18:18:34.185Z,102760.91
2019-02-26T18:23:38.669Z,102766.79
2019-02-26T18:28:47.444Z,102780.81
2019-02-26T18:33:50.896Z,102777.83
2019-02-26T18:38:56.363Z,102769.89
2019-02-26T18:44:09.581Z,102772.97
2019-02-26T18:49:15.282Z,102773.55
2019-02-26T18:54:21.125Z,102775.80
2019-02-26T18:59:27.535Z,102795.34
2019-02-26T19:04:32.885Z,102805.59
2019-02-26T19:09:38.710Z,102805.33
2019-02-26T19:14:44.002Z,102807.06
2019-02-26T19:19:50.559Z,102819.63
2019-02-26T19:24:56.167Z,102826.16
2019-02-26T19:30:04.167Z,102825.41
2019-02-26T19:35:12.516Z,102821.84
2019-02-26T19:40:20.945Z,102824.33
2019-02-26T19:45:26.507Z,102839.31
2019-02-26T19:50:31.705Z,102831.34
2019-02-26T19:55:39.796Z,102818.83
2019-02-26T20:00:46.398Z,102826.97
2019-02-26T20:05:51.820Z,102822.48
2019-02-26T20:10:57.784Z,102826.97
2019-02-26T20:16:03.653Z,102836.92
2019-02-26T20:21:08.724Z,102826.85
2019-02-26T20:26:16.385Z,102828.95
2019-02-26T20:31:21.874Z,102816.67
2019-02-26T20:36:27.549Z,102814.78
2019-02-26T20:41:32.718Z,102809.84
2019-02-26T20:46:38.373Z,102802.51
2019-02-26T20:51:43.510Z,102801.22
2019-02-26T20:56:48.878Z,102806.00
2019-02-26T21:01:55.283Z,102799.70
2019-02-26T21:07:00.643Z,102795.82
2019-02-26T21:12:06.615Z,102797.61
2019-02-26T21:17:12.050Z,102794.27
2019-02-26T21:22:19.781Z,102785.98
2019-02-26T21:27:25.959Z,102785.00
2019-02-26T21:32:31.624Z,102785.38
2019-02-26T21:37:37.196Z,102784.88
2019-02-26T21:42:42.653Z,102786.06
2019-02-26T21:47:48.338Z,102775.84
2019-02-26T21:53:00.943Z,102779.88
2019-02-26T21:58:00.440Z,102779.41
2019-02-26T22:03:06.057Z,102774.65
2019-02-26T22:08:11.693Z,102777.49
2019-02-26T22:13:17.715Z,102775.14
2019-02-26T22:18:23.547Z,102759.66
2019-02-26T22:23:29.453Z,102747.28
2019-02-26T22:28:35.284Z,102758.52
2019-02-26T22:33:43.185Z,102741.09
2019-02-26T22:38:49.187Z,102738.36
2019-02-26T22:43:55.784Z,102745.88
2019-02-26T22:49:01.319Z,102739.30
2019-02-26T22:54:09.491Z,102735.30
2019-02-26T22:59:14.301Z,102750.12
2019-02-26T23:04:20.459Z,102728.73
2019-02-26T23:09:28.084Z,102741.99
2019-02-26T23:14:35.896Z,102748.06
2019-02-26T23:19:41.920Z,102737.51
2019-02-26T23:24:47.849Z,102737.89
2019-02-26T23:29:54.635Z,102741.92
2019-02-26T23:35:10.749Z,102729.28
2019-02-26T23:40:17.445Z,102727.09
2019-02-26T23:45:24.139Z,102725.55
2019-02-26T23:50:30.614Z,102726.86
2019-02-26T23:55:36.481Z,102717.06
